Time;durP1;ratioP1;P1;durP2;ratioP2;P2;SDS_P1;SDS_P2;PMS_P1;PMS_P2;Temp;Humidity;BMP_temperature;BMP_pressure;BME280_temperature;BME280_humidity;BME280_pressure;Samples;Min_cycle;Max_cycle;Signal;HPM_P1;HPM_P2
2023/11/12 00:00:33;;;;;;;1.60;1.20;;;;;;;4.39;100.00;98569.72;5085607;28;20693;-80
2023/11/12 00:03:01;;;;;;;3.10;1.40;;;;;;;4.29;100.00;98569.34;5080085;28;20201;-80
2023/11/12 00:05:30;;;;;;;1.40;1.20;;;;;;;4.21;100.00;98570.34;5081725;28;20283;-81
2023/11/12 00:07:57;;;;;;;1.67;1.30;;;;;;;4.27;100.00;98560.75;5061580;28;20261;-79
2023/11/12 00:10:29;;;;;;;1.80;1.40;;;;;;;4.27;100.00;98566.06;5084121;28;20652;-80
2023/11/12 00:12:57;;;;;;;2.03;1.50;;;;;;;4.27;100.00;98572.19;5085551;28;20291;-80
2023/11/12 00:15:27;;;;;;;1.73;1.40;;;;;;;4.28;100.00;98571.19;5074465;28;20205;-80
2023/11/12 00:17:55;;;;;;;2.17;1.50;;;;;;;4.24;100.00;98569.97;5082394;28;20265;-79
2023/11/12 00:20:25;;;;;;;2.00;1.53;;;;;;;4.33;100.00;98566.06;5056879;28;20255;-79
2023/11/12 00:23:02;;;;;;;1.40;1.30;;;;;;;4.32;100.00;98563.63;5074679;28;20284;-79
2023/11/12 00:25:32;;;;;;;3.47;1.80;;;;;;;4.30;100.00;98569.13;5077296;28;20296;-83
2023/11/12 00:28:00;;;;;;;2.17;1.50;;;;;;;4.33;100.00;98571.38;5064640;28;20207;-78
2023/11/12 00:30:28;;;;;;;1.70;1.40;;;;;;;4.33;100.00;98563.44;5074102;28;20538;-79
2023/11/12 00:33:02;;;;;;;1.43;1.33;;;;;;;4.42;100.00;98567.50;5055441;28;20280;-80
2023/11/12 00:35:31;;;;;;;1.50;1.40;;;;;;;4.38;100.00;98568.13;5081383;28;20714;-81
2023/11/12 00:37:59;;;;;;;1.80;1.37;;;;;;;4.37;100.00;98579.72;5073999;28;20197;-79
2023/11/12 00:40:30;;;;;;;1.67;1.23;;;;;;;4.36;100.00;98580.75;5080857;28;20569;-78
2023/11/12 00:42:59;;;;;;;1.90;1.27;;;;;;;4.35;100.00;98576.47;5079535;28;20232;-78
2023/11/12 00:45:29;;;;;;;2.00;1.40;;;;;;;4.27;100.00;98579.31;5071416;28;20219;-79
2023/11/12 00:47:57;;;;;;;2.13;1.40;;;;;;;4.32;100.00;98579.53;5077903;28;20203;-79
2023/11/12 00:50:25;;;;;;;1.90;1.57;;;;;;;4.39;100.00;98577.66;5072807;28;20203;-81
2023/11/12 00:52:55;;;;;;;1.73;1.27;;;;;;;4.42;100.00;98580.75;5078248;28;20288;-80
2023/11/12 00:55:23;;;;;;;1.77;1.50;;;;;;;4.28;100.00;98581.78;5073009;28;20192;-81
2023/11/12 00:57:51;;;;;;;2.33;1.50;;;;;;;4.39;100.00;98570.53;5077170;28;20196;-79
2023/11/12 01:00:19;;;;;;;1.57;1.40;;;;;;;4.43;100.00;98582.34;5069990;28;20208;-81
2023/11/12 01:02:47;;;;;;;2.00;1.50;;;;;;;4.30;100.00;98577.06;5072854;28;20196;-80
2023/11/12 01:05:16;;;;;;;1.93;1.53;;;;;;;4.32;100.00;98579.53;5080005;28;20189;-78
2023/11/12 01:07:43;;;;;;;1.73;1.50;;;;;;;4.42;100.00;98570.16;5069424;28;20195;-79
2023/11/12 01:10:10;;;;;;;1.87;1.47;;;;;;;4.32;100.00;98583.00;5080711;28;20188;-80
2023/11/12 01:12:41;;;;;;;2.40;1.30;;;;;;;4.29;100.00;98575.44;5073127;28;20184;-80
2023/11/12 01:15:17;;;;;;;2.40;1.60;;;;;;;4.19;100.00;98579.53;5080912;28;20226;-79
2023/11/12 01:17:47;;;;;;;2.43;1.83;;;;;;;4.22;100.00;98587.06;5086174;28;20286;-80
2023/11/12 01:20:15;;;;;;;1.70;1.20;;;;;;;4.15;100.00;98583.63;5058146;28;20304;-80
2023/11/12 01:22:44;;;;;;;1.50;1.30;;;;;;;4.14;100.00;98589.94;5081249;28;20580;-80
2023/11/12 01:25:14;;;;;;;2.30;1.53;;;;;;;4.03;100.00;98590.53;5083878;28;20192;-79
2023/11/12 01:27:42;;;;;;;2.43;1.27;;;;;;;3.97;100.00;98585.00;5075574;28;20684;-80
2023/11/12 01:30:10;;;;;;;1.30;1.20;;;;;;;3.92;100.00;98592.75;5092621;28;20215;-79
2023/11/12 01:32:43;;;;;;;2.53;1.30;;;;;;;3.87;100.00;98589.88;5080510;28;20250;-82
2023/11/12 01:35:12;;;;;;;1.83;1.30;;;;;;;3.87;100.00;98587.25;5077750;28;20197;-80
2023/11/12 01:37:39;;;;;;;3.40;1.40;;;;;;;3.80;100.00;98588.25;5080271;28;20679;-80
2023/11/12 01:40:09;;;;;;;1.40;1.27;;;;;;;3.76;100.00;98592.34;5080402;28;20247;-77
2023/11/12 01:42:38;;;;;;;3.10;1.40;;;;;;;3.81;100.00;98588.06;5071114;28;20232;-78
2023/11/12 01:45:09;;;;;;;1.30;1.20;;;;;;;3.82;100.00;98586.25;5070369;28;20696;-80
2023/11/12 01:47:37;;;;;;;1.30;1.20;;;;;;;3.79;100.00;98584.78;5086001;28;20287;-79
2023/11/12 01:50:07;;;;;;;1.30;1.20;;;;;;;3.75;100.00;98586.22;5067319;28;20201;-80
2023/11/12 01:52:36;;;;;;;1.37;1.27;;;;;;;3.80;100.00;98581.13;5070328;28;20196;-80
2023/11/12 01:55:07;;;;;;;1.23;1.10;;;;;;;3.73;100.00;98590.91;5079579;28;20196;-80
2023/11/12 01:57:37;;;;;;;1.30;1.20;;;;;;;3.80;100.00;98580.31;5082527;28;20189;-80
2023/11/12 02:00:11;;;;;;;1.60;1.50;;;;;;;3.77;100.00;98573.59;5054453;28;20224;-80
2023/11/12 02:02:45;;;;;;;2.27;1.47;;;;;;;3.79;100.00;98576.84;5058698;28;20292;-80
2023/11/12 02:05:14;;;;;;;1.40;1.30;;;;;;;3.82;100.00;98578.28;5066862;28;20276;-80
2023/11/12 02:07:42;;;;;;;1.70;1.60;;;;;;;3.87;100.00;98587.25;5087420;28;20197;-78
2023/11/12 02:10:16;;;;;;;2.60;1.80;;;;;;;3.88;100.00;98588.88;5066949;28;20205;-80
2023/11/12 02:12:46;;;;;;;3.23;2.10;;;;;;;4.05;100.00;98596.47;5087693;28;20200;-82
2023/11/12 02:15:15;;;;;;;2.23;2.03;;;;;;;4.21;100.00;98588.91;5054652;28;20295;-79
2023/11/12 02:17:46;;;;;;;2.53;2.33;;;;;;;4.29;100.00;98586.03;5066959;28;20205;-79
2023/11/12 02:20:15;;;;;;;3.00;2.60;;;;;;;4.34;100.00;98580.13;5085344;28;20220;-78
2023/11/12 02:22:44;;;;;;;2.77;2.47;;;;;;;4.63;100.00;98592.94;5082679;28;20314;-80
2023/11/12 02:25:15;;;;;;;4.50;2.87;;;;;;;4.79;100.00;98591.72;5082707;28;20188;-79
2023/11/12 02:27:44;;;;;;;2.73;2.53;;;;;;;4.81;100.00;98582.50;5098851;28;20192;-79
2023/11/12 02:30:12;;;;;;;3.30;3.00;;;;;;;4.87;100.00;98570.25;5054263;28;20204;-80
2023/11/12 02:32:41;;;;;;;2.50;2.30;;;;;;;4.93;100.00;98581.88;5074083;28;20288;-81
2023/11/12 02:35:08;;;;;;;2.90;2.60;;;;;;;4.87;100.00;98579.03;5053886;28;20192;-79
2023/11/12 02:37:37;;;;;;;3.00;2.70;;;;;;;4.99;100.00;98583.69;5078748;28;20185;-79
2023/11/12 02:40:05;;;;;;;3.23;2.80;;;;;;;5.09;100.00;98579.56;5087053;28;20253;-81
2023/11/12 02:42:36;;;;;;;2.83;2.63;;;;;;;5.16;100.00;98571.59;5085448;28;20233;-80
2023/11/12 02:45:05;;;;;;;3.00;2.73;;;;;;;5.14;100.00;98576.28;5083689;28;20272;-81
2023/11/12 02:47:33;;;;;;;5.00;3.20;;;;;;;5.33;100.00;98575.38;5093389;28;20219;-80
2023/11/12 02:50:25;;;;;;;3.07;2.83;;;;;;;5.30;100.00;98573.97;5089965;28;20209;-79
2023/11/12 02:52:57;;;;;;;3.47;2.87;;;;;;;5.26;100.00;98570.13;5089020;28;20248;-81
2023/11/12 02:55:29;;;;;;;2.80;2.57;;;;;;;5.35;100.00;98568.03;5082404;28;20207;-81
2023/11/12 02:57:58;;;;;;;3.67;2.80;;;;;;;5.32;100.00;98569.25;5063839;28;20298;-79
2023/11/12 03:00:28;;;;;;;3.40;2.90;;;;;;;5.48;100.00;98564.47;5085413;28;20220;-79
2023/11/12 03:03:01;;;;;;;2.97;2.77;;;;;;;5.57;100.00;98565.88;5074700;28;20657;-79
2023/11/12 03:05:46;;;;;;;3.90;3.37;;;;;;;5.60;100.00;98571.56;5081198;28;20240;-78
2023/11/12 03:08:23;;;;;;;3.07;2.87;;;;;;;5.63;100.00;98570.34;5076069;28;20190;-80
2023/11/12 03:10:52;;;;;;;3.33;2.70;;;;;;;5.66;100.00;98561.94;5085808;28;20220;-81
2023/11/12 03:13:21;;;;;;;3.40;3.10;;;;;;;5.73;100.00;98568.03;5060577;28;20189;-80
2023/11/12 03:15:48;;;;;;;3.03;2.77;;;;;;;5.80;100.00;98576.75;5081562;28;20205;-79
2023/11/12 03:18:16;;;;;;;4.33;2.63;;;;;;;5.76;100.00;98584.34;5072959;28;20735;-79
2023/11/12 03:20:44;;;;;;;3.57;2.80;;;;;;;5.87;100.00;98577.56;5072953;28;20217;-80
2023/11/12 03:23:15;;;;;;;3.50;2.60;;;;;;;5.84;100.00;98585.94;5077430;28;20192;-80
2023/11/12 03:25:43;;;;;;;3.10;2.80;;;;;;;5.84;100.00;98572.63;5056497;28;20731;-81
2023/11/12 03:28:11;;;;;;;3.13;2.30;;;;;;;5.94;100.00;98575.69;5056485;28;20307;-82
2023/11/12 03:30:40;;;;;;;4.00;2.37;;;;;;;5.94;100.00;98577.50;5062292;28;20280;-81
2023/11/12 03:33:09;;;;;;;2.93;2.30;;;;;;;5.98;100.00;98573.38;5075643;28;20223;-80
2023/11/12 03:35:41;;;;;;;2.90;2.37;;;;;;;5.95;100.00;98577.31;5083435;28;20193;-82
2023/11/12 03:38:09;;;;;;;3.03;2.30;;;;;;;6.06;100.00;98579.28;5068238;28;20196;-78
2023/11/12 03:40:39;;;;;;;2.40;2.20;;;;;;;6.03;100.00;98582.34;5071196;28;20196;-80
2023/11/12 03:43:07;;;;;;;2.87;2.20;;;;;;;6.12;100.00;98578.41;5061336;28;20237;-80
2023/11/12 03:45:34;;;;;;;3.50;2.10;;;;;;;6.05;100.00;98577.66;5074725;28;20199;-78
2023/11/12 03:48:02;;;;;;;2.10;1.90;;;;;;;6.07;100.00;98574.75;5068641;28;20202;-79
2023/11/12 03:50:33;;;;;;;2.30;2.10;;;;;;;6.10;100.00;98585.81;5080054;28;20227;-79
2023/11/12 03:53:01;;;;;;;3.33;2.00;;;;;;;6.02;100.00;98582.59;5084362;28;20200;-78
2023/11/12 03:55:34;;;;;;;2.00;1.80;;;;;;;6.00;100.00;98582.81;5083744;28;20267;-80
2023/11/12 03:58:03;;;;;;;2.80;1.90;;;;;;;5.95;100.00;98593.25;5080175;28;20200;-79
2023/11/12 04:00:32;;;;;;;2.23;1.83;;;;;;;5.93;100.00;98594.50;5080217;28;20201;-79
2023/11/12 04:03:01;;;;;;;2.17;1.97;;;;;;;5.82;100.00;98593.31;5082501;28;20334;-79
2023/11/12 04:05:29;;;;;;;2.37;1.93;;;;;;;5.80;100.00;98597.19;5071565;28;20652;-81
2023/11/12 04:08:00;;;;;;;2.27;2.00;;;;;;;5.88;100.00;98599.66;5081886;28;20196;-78
2023/11/12 04:10:28;;;;;;;2.87;1.80;;;;;;;5.85;100.00;98592.06;5082185;28;20209;-80
2023/11/12 04:12:59;;;;;;;2.00;1.80;;;;;;;5.88;100.00;98589.03;5088848;28;20192;-78
2023/11/12 04:15:27;;;;;;;2.23;1.80;;;;;;;5.78;100.00;98593.97;5057059;28;20668;-80
2023/11/12 04:17:58;;;;;;;2.87;1.80;;;;;;;5.74;100.00;98589.06;5063107;28;20750;-80
2023/11/12 04:20:29;;;;;;;2.03;1.60;;;;;;;5.68;100.00;98591.78;5082927;28;20196;-80
2023/11/12 04:22:58;;;;;;;1.97;1.53;;;;;;;5.66;100.00;98591.97;5077999;28;20197;-79
2023/11/12 04:25:30;;;;;;;1.70;1.60;;;;;;;5.60;100.00;98606.09;5082343;28;20192;-79
2023/11/12 04:27:58;;;;;;;2.47;1.60;;;;;;;5.60;100.00;98605.31;5059391;28;20193;-78
2023/11/12 04:30:25;;;;;;;2.10;1.67;;;;;;;5.55;100.00;98608.56;5072343;28;20199;-78
2023/11/12 04:32:55;;;;;;;1.87;1.57;;;;;;;5.50;100.00;98619.06;5080786;28;20204;-82
2023/11/12 04:35:24;;;;;;;1.90;1.57;;;;;;;5.47;100.00;98616.78;5081390;28;20241;-78
2023/11/12 04:37:52;;;;;;;1.70;1.50;;;;;;;5.49;100.00;98620.06;5074405;28;20250;-80
2023/11/12 04:40:22;;;;;;;1.70;1.60;;;;;;;5.41;100.00;98612.34;5086278;28;20188;-79
2023/11/12 04:42:51;;;;;;;2.20;1.60;;;;;;;5.46;100.00;98617.03;5083285;28;20268;-78
2023/11/12 04:45:19;;;;;;;1.73;1.63;;;;;;;5.43;100.00;98617.44;5076289;28;20668;-80
2023/11/12 04:47:47;;;;;;;1.93;1.70;;;;;;;5.39;100.00;98617.03;5082488;28;20289;-80
2023/11/12 04:50:22;;;;;;;1.77;1.40;;;;;;;5.28;100.00;98615.03;5082108;28;20192;-79
2023/11/12 04:52:50;;;;;;;1.83;1.70;;;;;;;5.20;100.00;98610.78;5077165;28;20256;-80
2023/11/12 04:55:22;;;;;;;2.47;1.50;;;;;;;5.15;100.00;98613.25;5071713;28;20195;-79
2023/11/12 04:57:52;;;;;;;2.87;1.60;;;;;;;5.08;100.00;98612.47;5085422;28;20290;-78
2023/11/12 05:00:20;;;;;;;2.23;1.60;;;;;;;5.07;100.00;98617.97;5067865;28;20305;-79
2023/11/12 05:02:51;;;;;;;1.87;1.50;;;;;;;5.05;100.00;98615.53;5078130;28;20214;-79
2023/11/12 05:05:22;;;;;;;2.77;1.60;;;;;;;4.96;100.00;98622.06;5076468;28;20238;-79
2023/11/12 05:07:52;;;;;;;1.50;1.40;;;;;;;4.87;100.00;98625.97;5073618;28;20215;-79
2023/11/12 05:10:26;;;;;;;1.70;1.50;;;;;;;4.74;100.00;98623.34;5079581;28;20243;-78
2023/11/12 05:13:13;;;;;;;1.43;1.30;;;;;;;4.66;100.00;98632.34;5067681;28;20653;-81
2023/11/12 05:15:44;;;;;;;1.40;1.30;;;;;;;4.51;100.00;98633.59;5082583;28;20203;-80
2023/11/12 05:18:12;;;;;;;1.60;1.37;;;;;;;4.37;100.00;98635.44;5075757;28;20196;-79
2023/11/12 05:20:39;;;;;;;2.07;1.37;;;;;;;4.32;100.00;98643.16;5082230;28;20208;-79
2023/11/12 05:23:08;;;;;;;1.70;1.40;;;;;;;4.23;100.00;98647.88;5081745;28;20217;-82
2023/11/12 05:25:40;;;;;;;2.23;1.43;;;;;;;4.13;100.00;98658.03;5067432;28;20284;-80
2023/11/12 05:28:08;;;;;;;1.67;1.33;;;;;;;4.05;100.00;98660.06;5059022;28;20222;-80
2023/11/12 05:30:36;;;;;;;1.60;1.50;;;;;;;3.98;100.00;98654.75;5088433;28;20208;-80
2023/11/12 05:33:07;;;;;;;2.67;1.60;;;;;;;3.84;100.00;98656.56;5079144;28;20201;-80
2023/11/12 05:35:35;;;;;;;2.13;1.60;;;;;;;3.75;100.00;98654.28;5072176;28;20201;-79
2023/11/12 05:38:03;;;;;;;1.73;1.50;;;;;;;3.67;100.00;98659.75;5062678;28;20291;-81
2023/11/12 05:40:31;;;;;;;2.63;1.80;;;;;;;3.58;100.00;98661.78;5072284;28;20223;-79
2023/11/12 05:42:59;;;;;;;2.00;1.57;;;;;;;3.50;100.00;98656.63;5073583;28;20233;-79
2023/11/12 05:45:30;;;;;;;2.30;2.00;;;;;;;3.43;100.00;98655.81;5064730;28;20653;-78
2023/11/12 05:47:58;;;;;;;2.00;1.70;;;;;;;3.36;100.00;98654.97;5066719;28;20219;-79
2023/11/12 05:50:27;;;;;;;2.27;1.63;;;;;;;3.30;100.00;98661.03;5079069;28;20242;-80
2023/11/12 05:52:55;;;;;;;3.20;1.93;;;;;;;3.26;100.00;98663.28;5080915;28;20193;-79
2023/11/12 05:55:25;;;;;;;1.80;1.63;;;;;;;3.21;100.00;98652.44;5080416;28;20189;-84
2023/11/12 05:57:55;;;;;;;2.10;1.73;;;;;;;3.14;100.00;98656.88;5077303;28;20747;-79
2023/11/12 06:00:23;;;;;;;2.23;1.70;;;;;;;3.13;100.00;98662.38;5083692;28;20197;-78
2023/11/12 06:02:52;;;;;;;1.97;1.70;;;;;;;3.14;100.00;98659.53;5045833;28;20301;-80
2023/11/12 06:05:19;;;;;;;1.90;1.80;;;;;;;3.16;100.00;98665.47;5087124;28;20242;-79
2023/11/12 06:07:47;;;;;;;1.97;1.80;;;;;;;3.21;100.00;98673.63;5075890;28;20285;-81
2023/11/12 06:10:14;;;;;;;1.87;1.70;;;;;;;3.24;100.00;98667.94;5075251;28;20199;-79
2023/11/12 06:12:43;;;;;;;2.23;1.60;;;;;;;3.25;100.00;98669.56;5083808;28;20220;-79
2023/11/12 06:15:14;;;;;;;3.03;1.73;;;;;;;3.28;100.00;98671.00;5081720;28;20193;-80
2023/11/12 06:17:45;;;;;;;2.10;1.70;;;;;;;3.29;100.00;98680.59;5068425;28;20236;-80
2023/11/12 06:20:12;;;;;;;1.70;1.50;;;;;;;3.29;100.00;98670.81;5085363;28;20200;-79
2023/11/12 06:22:40;;;;;;;2.30;1.60;;;;;;;3.34;100.00;98672.88;5074060;28;20208;-79
2023/11/12 06:25:11;;;;;;;2.33;1.67;;;;;;;3.34;100.00;98672.88;5084246;28;20218;-80
2023/11/12 06:27:40;;;;;;;1.97;1.57;;;;;;;3.35;100.00;98680.63;5086217;28;20200;-79
2023/11/12 06:30:08;;;;;;;1.83;1.63;;;;;;;3.33;100.00;98682.63;5090593;28;20315;-78
2023/11/12 06:32:38;;;;;;;2.03;1.90;;;;;;;3.35;100.00;98677.16;5081182;28;20203;-80
2023/11/12 06:35:06;;;;;;;1.80;1.70;;;;;;;3.39;100.00;98681.03;5077084;28;20205;-79
2023/11/12 06:37:50;;;;;;;2.10;1.90;;;;;;;3.44;100.00;98689.22;5076946;28;20287;-80
2023/11/12 06:40:21;;;;;;;3.13;1.70;;;;;;;3.49;100.00;98697.41;5074260;28;20208;-79
2023/11/12 06:42:51;;;;;;;2.10;1.90;;;;;;;3.52;100.00;98700.47;5075619;28;20244;-79
2023/11/12 06:45:22;;;;;;;2.13;1.60;;;;;;;3.53;100.00;98695.97;5078812;28;20273;-80
2023/11/12 06:47:53;;;;;;;2.87;1.70;;;;;;;3.58;100.00;98700.69;5082943;28;20200;-80
2023/11/12 06:50:24;;;;;;;2.47;1.90;;;;;;;3.63;100.00;98703.56;5079334;28;20197;-79
2023/11/12 06:52:54;;;;;;;3.03;1.80;;;;;;;3.71;100.00;98704.19;5081183;28;20200;-80
2023/11/12 06:55:22;;;;;;;3.33;1.90;;;;;;;3.79;100.00;98696.06;5060316;28;20216;-81
2023/11/12 06:57:54;;;;;;;2.90;1.70;;;;;;;3.87;100.00;98695.09;5061841;28;20284;-80
2023/11/12 07:00:28;;;;;;;3.77;2.97;;;;;;;3.95;100.00;98698.38;5079750;28;20188;-79
2023/11/12 07:03:01;;;;;;;3.03;2.73;;;;;;;4.03;100.00;98696.53;5086440;28;20216;-80
2023/11/12 07:05:37;;;;;;;2.83;2.33;;;;;;;4.11;100.00;98701.66;5079835;28;20657;-78
2023/11/12 07:08:08;;;;;;;2.43;1.83;;;;;;;4.19;100.00;98704.16;5083232;28;20679;-79
2023/11/12 07:10:37;;;;;;;2.30;1.80;;;;;;;4.23;100.00;98706.19;5089013;28;20200;-80
2023/11/12 07:13:07;;;;;;;2.63;1.90;;;;;;;4.30;100.00;98704.34;5087514;28;20197;-79
2023/11/12 07:15:35;;;;;;;4.20;1.93;;;;;;;4.39;100.00;98704.97;5075279;28;20276;-80
2023/11/12 07:18:05;;;;;;;2.03;1.80;;;;;;;4.48;100.00;98708.28;5065580;28;20255;-78
2023/11/12 07:20:39;;;;;;;2.13;1.93;;;;;;;4.54;100.00;98708.25;5077901;28;20219;-81
2023/11/12 07:23:10;;;;;;;2.23;1.90;;;;;;;4.61;100.00;98713.59;5077263;28;20266;-80
2023/11/12 07:25:37;;;;;;;2.50;2.30;;;;;;;4.71;100.00;98714.00;5073596;28;20249;-79
2023/11/12 07:28:05;;;;;;;2.53;2.10;;;;;;;4.78;100.00;98704.19;5065795;28;20196;-80
2023/11/12 07:30:36;;;;;;;1.93;1.83;;;;;;;4.89;100.00;98700.91;5081341;28;20200;-79
2023/11/12 07:33:08;;;;;;;2.70;2.30;;;;;;;4.94;100.00;98695.81;5085368;28;20206;-80
2023/11/12 07:35:39;;;;;;;3.03;2.73;;;;;;;5.04;100.00;98690.88;5087210;28;20243;-79
2023/11/12 07:38:13;;;;;;;3.90;2.90;;;;;;;5.12;100.00;98698.66;5082351;28;20203;-78
2023/11/12 07:40:42;;;;;;;2.83;2.23;;;;;;;5.25;100.00;98697.78;5056343;28;20223;-78
2023/11/12 07:43:13;;;;;;;2.60;2.37;;;;;;;5.41;100.00;98702.66;5088036;28;20263;-80
2023/11/12 07:46:05;;;;;;;2.57;1.70;;;;;;;5.45;100.00;98703.06;5080432;28;20202;-80
2023/11/12 07:48:34;;;;;;;1.70;1.60;;;;;;;5.52;100.00;98704.66;5083374;28;20258;-79
2023/11/12 07:51:02;;;;;;;3.17;2.00;;;;;;;5.59;100.00;98704.66;5083934;28;20216;-78
2023/11/12 07:53:29;;;;;;;2.60;2.10;;;;;;;5.63;100.00;98712.00;5081389;28;20690;-79
2023/11/12 07:55:57;;;;;;;2.57;2.20;;;;;;;5.74;100.00;98708.66;5073408;28;20197;-78
2023/11/12 07:58:29;;;;;;;2.30;2.10;;;;;;;5.80;100.00;98707.00;5078496;28;20657;-80
2023/11/12 08:00:57;;;;;;;2.00;1.70;;;;;;;5.82;100.00;98712.13;5081690;28;20201;-79
2023/11/12 08:03:24;;;;;;;2.10;1.77;;;;;;;5.88;100.00;98719.28;5076965;28;20244;-79
2023/11/12 08:05:55;;;;;;;2.57;1.70;;;;;;;5.92;100.00;98717.84;5080436;28;20723;-81
2023/11/12 08:08:29;;;;;;;2.37;1.50;;;;;;;5.98;100.00;98717.78;5078639;28;20184;-81
2023/11/12 08:11:01;;;;;;;1.50;1.40;;;;;;;5.98;100.00;98725.75;5079816;28;20188;-79
2023/11/12 08:13:31;;;;;;;1.97;1.40;;;;;;;6.06;100.00;98722.06;5076176;28;20676;-80
2023/11/12 08:16:03;;;;;;;1.53;1.43;;;;;;;6.11;100.00;98730.22;5082654;28;20212;-82
2023/11/12 08:18:33;;;;;;;1.80;1.70;;;;;;;6.17;100.00;98729.34;5088040;28;20670;-79
2023/11/12 08:21:02;;;;;;;2.17;1.57;;;;;;;6.20;100.00;98727.06;5085493;28;20204;-79
2023/11/12 08:23:29;;;;;;;2.40;1.97;;;;;;;6.27;100.00;98724.38;5081946;28;20216;-80
2023/11/12 08:26:06;;;;;;;2.47;1.90;;;;;;;6.32;100.00;98719.25;5072537;28;20189;-79
2023/11/12 08:28:34;;;;;;;2.20;2.00;;;;;;;6.40;100.00;98732.28;5088670;28;20200;-80
2023/11/12 08:31:07;;;;;;;2.10;1.90;;;;;;;6.46;100.00;98717.31;5071761;28;20193;-79
2023/11/12 08:33:44;;;;;;;1.80;1.70;;;;;;;6.54;100.00;98715.19;5080738;28;20249;-80
2023/11/12 08:36:15;;;;;;;1.80;1.63;;;;;;;6.57;100.00;98719.28;5083990;28;20287;-79
2023/11/12 08:38:47;;;;;;;2.13;1.87;;;;;;;6.57;100.00;98725.44;5080163;28;20202;-81
2023/11/12 08:41:18;;;;;;;2.67;1.87;;;;;;;6.68;100.00;98734.53;5080801;28;20202;-81
2023/11/12 08:43:49;;;;;;;2.40;1.90;;;;;;;6.81;100.00;98725.66;5078367;28;20216;-80
2023/11/12 08:46:20;;;;;;;5.87;5.43;;;;;;;6.80;100.00;98734.69;5091955;28;20188;-80
2023/11/12 08:48:48;;;;;;;3.33;2.60;;;;;;;6.90;100.00;98737.66;5080632;28;20214;-78
2023/11/12 08:51:15;;;;;;;2.70;2.10;;;;;;;6.91;100.00;98744.59;5084913;28;20211;-78
2023/11/12 08:53:42;;;;;;;11.83;7.03;;;;;;;6.94;100.00;98749.50;5090628;28;20213;-78
2023/11/12 08:56:13;;;;;;;4.90;4.30;;;;;;;7.01;100.00;98744.94;5088722;28;20200;-80
2023/11/12 08:58:52;;;;;;;2.53;2.07;;;;;;;7.05;100.00;98752.28;5068834;28;20709;-78
2023/11/12 09:01:25;;;;;;;1.50;1.40;;;;;;;7.12;100.00;98754.88;5070960;28;20252;-80
2023/11/12 09:03:52;;;;;;;1.53;1.13;;;;;;;7.18;100.00;98755.88;5072044;28;20242;-79
2023/11/12 09:06:22;;;;;;;5.07;4.10;;;;;;;7.24;100.00;98754.97;5078667;28;20185;-79
2023/11/12 09:08:49;;;;;;;74.60;22.00;;;;;;;7.32;100.00;98758.19;5071407;28;20218;-78
2023/11/12 09:11:22;;;;;;;3.97;2.50;;;;;;;7.43;100.00;98748.63;5072293;28;20613;-78
2023/11/12 09:13:50;;;;;;;2.37;1.60;;;;;;;7.42;100.00;98750.47;5068824;28;20205;-80
2023/11/12 09:16:20;;;;;;;2.43;1.87;;;;;;;7.54;100.00;98750.59;5064702;28;20201;-80
2023/11/12 09:18:48;;;;;;;3.63;1.97;;;;;;;7.64;100.00;98750.91;5078252;28;20264;-79
2023/11/12 09:21:19;;;;;;;2.43;1.90;;;;;;;7.66;100.00;98750.66;5081230;28;20203;-78
2023/11/12 09:23:53;;;;;;;2.03;1.60;;;;;;;7.70;100.00;98744.66;5077099;28;20634;-79
2023/11/12 09:26:22;;;;;;;54.27;17.67;;;;;;;7.75;100.00;98739.47;5082420;28;20648;-78
2023/11/12 09:28:52;;;;;;;6.20;3.30;;;;;;;7.80;100.00;98741.47;5075717;28;20200;-83
2023/11/12 09:31:24;;;;;;;3.83;3.17;;;;;;;7.91;100.00;98730.06;5084154;28;20200;-81
2023/11/12 09:33:52;;;;;;;5.67;3.00;;;;;;;8.00;100.00;98738.56;5088409;28;20332;-80
2023/11/12 09:36:19;;;;;;;40.40;15.43;;;;;;;8.05;100.00;98736.03;5090226;28;20226;-79
2023/11/12 09:38:50;;;;;;;8.27;4.23;;;;;;;8.19;100.00;98740.16;5058073;28;20203;-80
2023/11/12 09:41:21;;;;;;;44.87;15.97;;;;;;;8.26;100.00;98740.88;5093770;28;20270;-78
2023/11/12 09:43:53;;;;;;;4.93;2.70;;;;;;;8.37;100.00;98732.16;5077042;28;20223;-74
2023/11/12 09:46:22;;;;;;;3.97;2.17;;;;;;;8.47;100.00;98734.28;5079175;28;20185;-75
2023/11/12 09:48:52;;;;;;;116.07;38.40;;;;;;;8.57;100.00;98735.34;5084542;28;20203;-77
2023/11/12 09:51:21;;;;;;;30.87;12.70;;;;;;;8.70;100.00;98732.47;5073842;28;20301;-74
2023/11/12 09:53:52;;;;;;;29.07;10.70;;;;;;;8.75;100.00;98729.94;5077051;28;20185;-74
2023/11/12 09:56:24;;;;;;;30.63;11.83;;;;;;;8.84;100.00;98725.88;5075474;28;20193;-73
2023/11/12 09:58:52;;;;;;;32.90;12.50;;;;;;;8.94;100.00;98719.97;5074397;28;20267;-74
2023/11/12 10:01:20;;;;;;;7.30;3.30;;;;;;;9.03;100.00;98723.13;5083253;28;20188;-74
2023/11/12 10:03:51;;;;;;;15.40;6.10;;;;;;;9.09;100.00;98723.00;5084083;28;20313;-74
2023/11/12 10:06:21;;;;;;;10.80;5.07;;;;;;;9.12;100.00;98716.38;5092783;28;20234;-73
2023/11/12 10:08:50;;;;;;;6.60;3.30;;;;;;;9.18;100.00;98718.94;5086279;28;20222;-74
2023/11/12 10:11:18;;;;;;;5.53;2.70;;;;;;;9.26;100.00;98712.44;5085313;28;20189;-74
2023/11/12 10:13:46;;;;;;;6.57;3.90;;;;;;;9.40;100.00;98715.66;5075853;28;20200;-74
2023/11/12 10:16:29;;;;;;;13.43;7.20;;;;;;;9.44;100.00;98703.47;5080630;28;20203;-75
2023/11/12 10:19:13;;;;;;;1.10;1.00;;;;;;;9.43;100.00;98704.50;5085986;28;20211;-73
2023/11/12 10:21:55;;;;;;;2.00;1.37;;;;;;;9.56;100.00;98713.13;5084117;28;20249;-74
2023/11/12 10:24:29;;;;;;;1.27;1.00;;;;;;;9.66;100.00;98704.47;5080445;28;20212;-74
2023/11/12 10:27:05;;;;;;;2.97;2.00;;;;;;;9.83;100.00;98705.38;5085334;28;20188;-74
2023/11/12 10:29:33;;;;;;;2.40;1.60;;;;;;;9.93;100.00;98704.75;5092455;28;20290;-76
2023/11/12 10:32:00;;;;;;;1.50;1.10;;;;;;;9.92;100.00;98700.47;5087406;28;20193;-74
2023/11/12 10:34:28;;;;;;;2.90;1.90;;;;;;;9.96;100.00;98697.06;5080933;28;20204;-74
2023/11/12 10:37:10;;;;;;;3.93;2.50;;;;;;;10.05;100.00;98701.00;5085963;28;20219;-74
2023/11/12 10:39:43;;;;;;;1.10;0.80;;;;;;;10.12;100.00;98687.47;5091389;28;20196;-73
2023/11/12 10:42:24;;;;;;;0.70;0.70;;;;;;;10.21;100.00;98690.59;5078043;28;20285;-73
2023/11/12 10:44:57;;;;;;;1.47;0.90;;;;;;;10.35;100.00;98690.06;5083840;28;20287;-74
2023/11/12 10:47:26;;;;;;;0.77;0.77;;;;;;;10.45;100.00;98681.41;5082198;28;20189;-73
2023/11/12 10:49:54;;;;;;;2.03;1.00;;;;;;;10.50;100.00;98684.97;5076305;28;20200;-74
2023/11/12 10:52:23;;;;;;;2.57;1.40;;;;;;;10.49;100.00;98683.38;5075212;28;20216;-74
2023/11/12 10:54:51;;;;;;;1.70;0.97;;;;;;;10.59;100.00;98678.16;5072598;28;20193;-77
2023/11/12 10:57:19;;;;;;;1.00;0.90;;;;;;;10.64;100.00;98668.59;5077316;28;20200;-73
2023/11/12 10:59:48;;;;;;;1.40;1.00;;;;;;;10.79;100.00;98674.19;5073193;28;20192;-73
2023/11/12 11:02:18;;;;;;;0.50;0.50;;;;;;;10.80;98.62;98673.94;5082667;28;20189;-75
2023/11/12 11:04:46;;;;;;;1.30;0.60;;;;;;;10.84;95.44;98675.09;5091066;28;20199;-73
2023/11/12 11:07:15;;;;;;;1.60;0.77;;;;;;;10.90;95.87;98673.31;5083759;28;20225;-73
2023/11/12 11:09:43;;;;;;;1.90;0.90;;;;;;;10.92;99.32;98673.84;5089693;28;20286;-74
2023/11/12 11:12:11;;;;;;;1.77;1.20;;;;;;;11.03;100.00;98663.06;5080520;28;20232;-74
2023/11/12 11:14:39;;;;;;;1.17;0.80;;;;;;;11.11;100.00;98664.50;5072407;28;20284;-73
2023/11/12 11:17:08;;;;;;;1.53;1.00;;;;;;;10.98;100.00;98651.44;5083586;28;20193;-75
2023/11/12 11:19:45;;;;;;;0.60;0.47;;;;;;;10.96;97.94;98661.63;5093290;28;20192;-76
2023/11/12 11:22:26;;;;;;;1.10;0.67;;;;;;;10.86;92.07;98654.22;5087001;28;20215;-73
2023/11/12 11:24:58;;;;;;;2.13;0.50;;;;;;;10.89;93.66;98648.38;5086177;28;20196;-74
2023/11/12 11:27:26;;;;;;;0.60;0.50;;;;;;;11.07;94.83;98654.50;5080233;28;20209;-73
2023/11/12 11:30:12;;;;;;;0.70;0.70;;;;;;;11.23;91.28;98651.81;5090012;28;20219;-73
2023/11/12 11:33:02;;;;;;;1.00;0.60;;;;;;;11.28;88.64;98654.56;5086937;28;20192;-75
2023/11/12 11:35:31;;;;;;;1.13;0.60;;;;;;;11.25;87.34;98635.47;5081497;28;20716;-74
2023/11/12 11:38:12;;;;;;;0.77;0.40;;;;;;;11.27;86.48;98633.34;5085268;28;20193;-73
2023/11/12 11:40:45;;;;;;;3.50;0.73;;;;;;;11.10;85.33;98637.97;5076985;28;20204;-76
2023/11/12 11:43:22;;;;;;;1.60;0.50;;;;;;;11.08;87.47;98637.38;5075245;28;20315;-75
2023/11/12 11:46:17;;;;;;;0.57;0.50;;;;;;;11.28;85.67;98633.13;5080438;28;20203;-74